Terminal Aerodrome Forecast
Issued by NWS Green Bay, WI

Home | Current Version | Previous Version | Graphics & Text | Print | Product List | Glossary On
Versions: 1 2 3 4 5 6 7 8 9 10 11 12 13 14 15 16 17 18 19 20 21 22 23 24 25 26 27 28 29 30 31 32 33 34
000
FTUS43 KGRB 231100
TAFGRB
TAF
KGRB 231136Z 2312/2412 23014G20KT P6SM BKN015 OVC120 WS017/25040KT
     FM231600 23013G21KT P6SM SCT015 OVC080 WS017/25040KT
      TEMPO 2319/2323 -RASN BKN060
     FM232300 25009KT P6SM SCT025 OVC050
     FM240300 28007KT P6SM OVC015=

USA.gov is the U.S. government's official web portal to all federal, state and local government web resources and services.